sensor_id;sensor_type;location;lat;lon;timestamp;P1;durP1;ratioP1;P2;durP2;ratioP2
11699;SDS011;5906;51.660;6.674;2024-01-15T00:00:26;38.53;;;19.13;;
11699;SDS011;5906;51.660;6.674;2024-01-15T00:02:52;35.50;;;17.23;;
11699;SDS011;5906;51.660;6.674;2024-01-15T00:05:19;39.87;;;19.87;;
11699;SDS011;5906;51.660;6.674;2024-01-15T00:07:46;32.73;;;17.43;;
11699;SDS011;5906;51.660;6.674;2024-01-15T00:10:13;33.40;;;17.83;;
11699;SDS011;5906;51.660;6.674;2024-01-15T00:12:40;35.53;;;19.67;;
11699;SDS011;5906;51.660;6.674;2024-01-15T00:15:09;40.70;;;20.50;;
11699;SDS011;5906;51.660;6.674;2024-01-15T00:17:36;36.43;;;18.83;;
11699;SDS011;5906;51.660;6.674;2024-01-15T00:20:03;37.53;;;18.83;;
11699;SDS011;5906;51.660;6.674;2024-01-15T00:22:30;37.47;;;19.60;;
11699;SDS011;5906;51.660;6.674;2024-01-15T00:24:58;39.03;;;18.90;;
11699;SDS011;5906;51.660;6.674;2024-01-15T00:27:25;32.40;;;18.17;;
11699;SDS011;5906;51.660;6.674;2024-01-15T00:29:52;34.03;;;20.10;;
11699;SDS011;5906;51.660;6.674;2024-01-15T00:32:20;35.70;;;17.30;;
11699;SDS011;5906;51.660;6.674;2024-01-15T00:34:47;38.70;;;19.00;;
11699;SDS011;5906;51.660;6.674;2024-01-15T00:37:14;34.50;;;17.97;;
11699;SDS011;5906;51.660;6.674;2024-01-15T00:39:41;31.53;;;18.13;;
11699;SDS011;5906;51.660;6.674;2024-01-15T00:42:08;36.30;;;17.50;;
11699;SDS011;5906;51.660;6.674;2024-01-15T00:44:35;34.47;;;18.20;;
11699;SDS011;5906;51.660;6.674;2024-01-15T00:47:02;31.70;;;17.13;;
11699;SDS011;5906;51.660;6.674;2024-01-15T00:49:29;31.17;;;17.40;;
11699;SDS011;5906;51.660;6.674;2024-01-15T00:51:56;28.20;;;16.57;;
11699;SDS011;5906;51.660;6.674;2024-01-15T00:54:24;30.67;;;16.43;;
11699;SDS011;5906;51.660;6.674;2024-01-15T00:56:50;23.40;;;14.10;;
11699;SDS011;5906;51.660;6.674;2024-01-15T00:59:17;22.70;;;13.00;;
11699;SDS011;5906;51.660;6.674;2024-01-15T01:01:47;28.33;;;14.63;;
11699;SDS011;5906;51.660;6.674;2024-01-15T01:04:14;24.10;;;12.10;;
11699;SDS011;5906;51.660;6.674;2024-01-15T01:06:41;28.23;;;14.60;;
11699;SDS011;5906;51.660;6.674;2024-01-15T01:09:09;19.90;;;12.67;;
11699;SDS011;5906;51.660;6.674;2024-01-15T01:11:39;19.70;;;11.47;;
11699;SDS011;5906;51.660;6.674;2024-01-15T01:14:06;26.47;;;12.90;;
11699;SDS011;5906;51.660;6.674;2024-01-15T01:16:33;22.50;;;13.03;;
11699;SDS011;5906;51.660;6.674;2024-01-15T01:19:05;18.07;;;12.00;;
11699;SDS011;5906;51.660;6.674;2024-01-15T01:21:34;19.93;;;10.33;;
11699;SDS011;5906;51.660;6.674;2024-01-15T01:24:01;23.43;;;14.60;;
11699;SDS011;5906;51.660;6.674;2024-01-15T01:26:28;22.63;;;13.80;;
11699;SDS011;5906;51.660;6.674;2024-01-15T01:28:55;19.10;;;12.47;;
11699;SDS011;5906;51.660;6.674;2024-01-15T01:31:22;25.17;;;13.87;;
11699;SDS011;5906;51.660;6.674;2024-01-15T01:33:50;17.77;;;12.03;;
11699;SDS011;5906;51.660;6.674;2024-01-15T01:36:17;26.03;;;12.67;;
11699;SDS011;5906;51.660;6.674;2024-01-15T01:38:44;20.67;;;10.97;;
11699;SDS011;5906;51.660;6.674;2024-01-15T01:41:11;17.17;;;12.10;;
11699;SDS011;5906;51.660;6.674;2024-01-15T01:43:38;25.93;;;13.13;;
11699;SDS011;5906;51.660;6.674;2024-01-15T01:46:04;18.40;;;11.50;;
11699;SDS011;5906;51.660;6.674;2024-01-15T01:48:32;21.93;;;12.20;;
11699;SDS011;5906;51.660;6.674;2024-01-15T01:51:00;21.57;;;13.30;;
11699;SDS011;5906;51.660;6.674;2024-01-15T01:53:30;21.73;;;13.23;;
11699;SDS011;5906;51.660;6.674;2024-01-15T01:56:00;22.47;;;13.07;;
11699;SDS011;5906;51.660;6.674;2024-01-15T01:58:29;16.17;;;11.30;;
11699;SDS011;5906;51.660;6.674;2024-01-15T02:00:58;23.27;;;12.47;;
11699;SDS011;5906;51.660;6.674;2024-01-15T02:03:27;22.83;;;11.93;;
11699;SDS011;5906;51.660;6.674;2024-01-15T02:05:55;18.70;;;11.63;;
11699;SDS011;5906;51.660;6.674;2024-01-15T02:08:22;19.77;;;11.40;;
11699;SDS011;5906;51.660;6.674;2024-01-15T02:10:49;13.97;;;9.70;;
11699;SDS011;5906;51.660;6.674;2024-01-15T02:13:17;18.37;;;11.03;;
11699;SDS011;5906;51.660;6.674;2024-01-15T02:15:44;16.63;;;10.80;;
11699;SDS011;5906;51.660;6.674;2024-01-15T02:18:11;17.43;;;11.13;;
11699;SDS011;5906;51.660;6.674;2024-01-15T02:20:39;15.83;;;9.93;;
11699;SDS011;5906;51.660;6.674;2024-01-15T02:23:09;17.53;;;10.53;;
11699;SDS011;5906;51.660;6.674;2024-01-15T02:25:38;17.03;;;10.60;;
11699;SDS011;5906;51.660;6.674;2024-01-15T02:28:10;17.97;;;10.27;;
11699;SDS011;5906;51.660;6.674;2024-01-15T02:30:39;16.20;;;11.07;;
11699;SDS011;5906;51.660;6.674;2024-01-15T02:33:07;16.63;;;8.90;;
11699;SDS011;5906;51.660;6.674;2024-01-15T02:35:35;15.27;;;11.40;;
11699;SDS011;5906;51.660;6.674;2024-01-15T02:38:03;17.53;;;10.97;;
11699;SDS011;5906;51.660;6.674;2024-01-15T02:40:30;15.47;;;11.93;;
11699;SDS011;5906;51.660;6.674;2024-01-15T02:42:58;21.20;;;11.90;;
11699;SDS011;5906;51.660;6.674;2024-01-15T02:45:25;14.90;;;12.20;;
11699;SDS011;5906;51.660;6.674;2024-01-15T02:47:52;18.17;;;12.23;;
11699;SDS011;5906;51.660;6.674;2024-01-15T02:50:19;23.80;;;12.23;;
11699;SDS011;5906;51.660;6.674;2024-01-15T02:52:46;16.63;;;11.43;;
11699;SDS011;5906;51.660;6.674;2024-01-15T02:55:13;17.23;;;11.60;;
11699;SDS011;5906;51.660;6.674;2024-01-15T02:57:41;21.67;;;11.70;;
11699;SDS011;5906;51.660;6.674;2024-01-15T03:00:08;16.57;;;11.40;;
11699;SDS011;5906;51.660;6.674;2024-01-15T03:02:36;16.87;;;10.67;;
11699;SDS011;5906;51.660;6.674;2024-01-15T03:05:09;16.10;;;11.50;;
11699;SDS011;5906;51.660;6.674;2024-01-15T03:07:36;16.90;;;11.20;;
11699;SDS011;5906;51.660;6.674;2024-01-15T03:10:04;14.60;;;10.50;;
11699;SDS011;5906;51.660;6.674;2024-01-15T03:12:32;21.10;;;12.07;;
11699;SDS011;5906;51.660;6.674;2024-01-15T03:14:59;16.90;;;12.10;;
11699;SDS011;5906;51.660;6.674;2024-01-15T03:17:26;20.57;;;12.03;;
11699;SDS011;5906;51.660;6.674;2024-01-15T03:19:53;13.73;;;10.87;;
11699;SDS011;5906;51.660;6.674;2024-01-15T03:22:21;17.63;;;10.90;;
11699;SDS011;5906;51.660;6.674;2024-01-15T03:24:48;17.63;;;10.57;;
11699;SDS011;5906;51.660;6.674;2024-01-15T03:27:15;20.70;;;10.20;;
11699;SDS011;5906;51.660;6.674;2024-01-15T03:29:42;15.93;;;9.43;;
11699;SDS011;5906;51.660;6.674;2024-01-15T03:32:09;22.07;;;10.07;;
11699;SDS011;5906;51.660;6.674;2024-01-15T03:34:36;16.83;;;10.23;;
11699;SDS011;5906;51.660;6.674;2024-01-15T03:37:03;23.33;;;8.40;;
11699;SDS011;5906;51.660;6.674;2024-01-15T03:39:30;17.17;;;9.33;;
11699;SDS011;5906;51.660;6.674;2024-01-15T03:41:57;11.00;;;8.70;;
11699;SDS011;5906;51.660;6.674;2024-01-15T03:44:24;16.20;;;9.30;;
11699;SDS011;5906;51.660;6.674;2024-01-15T03:46:51;16.90;;;9.20;;
11699;SDS011;5906;51.660;6.674;2024-01-15T03:49:18;11.20;;;7.43;;
11699;SDS011;5906;51.660;6.674;2024-01-15T03:51:45;11.40;;;8.80;;
11699;SDS011;5906;51.660;6.674;2024-01-15T03:54:12;10.50;;;8.00;;
11699;SDS011;5906;51.660;6.674;2024-01-15T03:56:43;11.90;;;8.73;;
11699;SDS011;5906;51.660;6.674;2024-01-15T03:59:10;15.30;;;7.30;;
11699;SDS011;5906;51.660;6.674;2024-01-15T04:01:37;16.80;;;7.87;;
11699;SDS011;5906;51.660;6.674;2024-01-15T04:04:04;8.13;;;6.30;;
11699;SDS011;5906;51.660;6.674;2024-01-15T04:06:31;9.37;;;6.80;;
11699;SDS011;5906;51.660;6.674;2024-01-15T04:08:58;12.10;;;7.20;;
11699;SDS011;5906;51.660;6.674;2024-01-15T04:11:25;6.80;;;6.10;;
11699;SDS011;5906;51.660;6.674;2024-01-15T04:13:52;9.70;;;6.47;;
11699;SDS011;5906;51.660;6.674;2024-01-15T04:16:19;7.73;;;5.70;;
11699;SDS011;5906;51.660;6.674;2024-01-15T04:18:46;6.83;;;5.27;;
11699;SDS011;5906;51.660;6.674;2024-01-15T04:21:13;6.27;;;5.67;;
11699;SDS011;5906;51.660;6.674;2024-01-15T04:23:42;9.27;;;5.80;;
11699;SDS011;5906;51.660;6.674;2024-01-15T04:26:09;11.50;;;5.53;;
11699;SDS011;5906;51.660;6.674;2024-01-15T04:28:36;14.43;;;6.10;;
11699;SDS011;5906;51.660;6.674;2024-01-15T04:31:03;6.87;;;5.77;;
11699;SDS011;5906;51.660;6.674;2024-01-15T04:33:31;8.67;;;6.33;;
11699;SDS011;5906;51.660;6.674;2024-01-15T04:36:01;6.50;;;5.90;;
11699;SDS011;5906;51.660;6.674;2024-01-15T04:38:29;7.50;;;5.80;;
11699;SDS011;5906;51.660;6.674;2024-01-15T04:40:56;7.27;;;6.57;;
11699;SDS011;5906;51.660;6.674;2024-01-15T04:43:23;13.33;;;5.90;;
11699;SDS011;5906;51.660;6.674;2024-01-15T04:45:51;8.93;;;6.23;;
11699;SDS011;5906;51.660;6.674;2024-01-15T04:48:18;8.60;;;7.53;;
11699;SDS011;5906;51.660;6.674;2024-01-15T04:50:45;8.97;;;6.10;;
11699;SDS011;5906;51.660;6.674;2024-01-15T04:53:13;8.50;;;6.97;;
11699;SDS011;5906;51.660;6.674;2024-01-15T04:55:40;8.80;;;7.90;;
11699;SDS011;5906;51.660;6.674;2024-01-15T04:58:07;16.50;;;6.77;;
11699;SDS011;5906;51.660;6.674;2024-01-15T05:00:34;8.73;;;7.60;;
11699;SDS011;5906;51.660;6.674;2024-01-15T05:03:01;13.10;;;7.67;;
11699;SDS011;5906;51.660;6.674;2024-01-15T05:05:28;7.93;;;7.20;;
11699;SDS011;5906;51.660;6.674;2024-01-15T05:07:55;13.03;;;7.30;;
11699;SDS011;5906;51.660;6.674;2024-01-15T05:10:22;9.93;;;6.67;;
11699;SDS011;5906;51.660;6.674;2024-01-15T05:12:49;14.00;;;6.73;;
11699;SDS011;5906;51.660;6.674;2024-01-15T05:15:16;8.60;;;7.40;;
11699;SDS011;5906;51.660;6.674;2024-01-15T05:17:43;12.37;;;7.40;;
11699;SDS011;5906;51.660;6.674;2024-01-15T05:20:10;15.37;;;7.67;;
11699;SDS011;5906;51.660;6.674;2024-01-15T05:22:37;8.77;;;7.80;;
11699;SDS011;5906;51.660;6.674;2024-01-15T05:25:04;12.67;;;6.33;;
11699;SDS011;5906;51.660;6.674;2024-01-15T05:27:31;8.50;;;7.70;;
11699;SDS011;5906;51.660;6.674;2024-01-15T05:29:58;7.77;;;6.80;;
11699;SDS011;5906;51.660;6.674;2024-01-15T05:32:25;10.77;;;6.80;;
11699;SDS011;5906;51.660;6.674;2024-01-15T05:34:52;6.93;;;5.70;;
11699;SDS011;5906;51.660;6.674;2024-01-15T05:37:19;9.13;;;6.70;;
11699;SDS011;5906;51.660;6.674;2024-01-15T05:39:47;15.37;;;5.80;;
11699;SDS011;5906;51.660;6.674;2024-01-15T05:42:14;15.10;;;7.00;;
11699;SDS011;5906;51.660;6.674;2024-01-15T05:44:41;8.60;;;5.70;;
11699;SDS011;5906;51.660;6.674;2024-01-15T05:47:07;10.67;;;6.13;;
11699;SDS011;5906;51.660;6.674;2024-01-15T05:49:34;11.93;;;6.83;;
11699;SDS011;5906;51.660;6.674;2024-01-15T05:52:02;10.83;;;7.40;;
11699;SDS011;5906;51.660;6.674;2024-01-15T05:54:29;11.03;;;5.20;;
11699;SDS011;5906;51.660;6.674;2024-01-15T05:56:56;9.30;;;6.10;;
11699;SDS011;5906;51.660;6.674;2024-01-15T05:59:23;9.43;;;5.93;;
11699;SDS011;5906;51.660;6.674;2024-01-15T06:01:50;9.07;;;5.80;;
11699;SDS011;5906;51.660;6.674;2024-01-15T06:04:17;9.67;;;6.73;;
11699;SDS011;5906;51.660;6.674;2024-01-15T06:06:44;9.10;;;6.97;;
11699;SDS011;5906;51.660;6.674;2024-01-15T06:09:11;8.07;;;6.80;;
11699;SDS011;5906;51.660;6.674;2024-01-15T06:11:38;9.63;;;6.70;;
11699;SDS011;5906;51.660;6.674;2024-01-15T06:14:05;10.20;;;5.83;;
11699;SDS011;5906;51.660;6.674;2024-01-15T06:16:32;9.67;;;6.23;;
11699;SDS011;5906;51.660;6.674;2024-01-15T06:18:59;7.37;;;6.07;;
11699;SDS011;5906;51.660;6.674;2024-01-15T06:21:26;8.07;;;6.53;;
11699;SDS011;5906;51.660;6.674;2024-01-15T06:23:53;8.77;;;7.00;;
11699;SDS011;5906;51.660;6.674;2024-01-15T06:26:20;9.43;;;5.73;;
11699;SDS011;5906;51.660;6.674;2024-01-15T06:28:47;13.83;;;6.50;;
11699;SDS011;5906;51.660;6.674;2024-01-15T06:31:13;11.80;;;4.97;;
11699;SDS011;5906;51.660;6.674;2024-01-15T06:33:40;5.97;;;5.40;;
11699;SDS011;5906;51.660;6.674;2024-01-15T06:36:11;7.40;;;6.13;;
11699;SDS011;5906;51.660;6.674;2024-01-15T06:38:38;11.43;;;6.23;;
11699;SDS011;5906;51.660;6.674;2024-01-15T06:41:05;7.90;;;6.53;;
11699;SDS011;5906;51.660;6.674;2024-01-15T06:43:32;10.93;;;5.60;;
11699;SDS011;5906;51.660;6.674;2024-01-15T06:45:59;9.50;;;5.70;;
11699;SDS011;5906;51.660;6.674;2024-01-15T06:48:31;9.20;;;5.30;;
11699;SDS011;5906;51.660;6.674;2024-01-15T06:50:59;11.13;;;4.60;;
11699;SDS011;5906;51.660;6.674;2024-01-15T06:53:25;7.33;;;6.40;;
11699;SDS011;5906;51.660;6.674;2024-01-15T06:55:52;5.70;;;5.30;;
11699;SDS011;5906;51.660;6.674;2024-01-15T06:58:22;5.87;;;5.37;;
11699;SDS011;5906;51.660;6.674;2024-01-15T07:00:49;6.77;;;6.03;;
11699;SDS011;5906;51.660;6.674;2024-01-15T07:03:16;8.43;;;5.37;;
11699;SDS011;5906;51.660;6.674;2024-01-15T07:05:43;4.57;;;4.30;;
11699;SDS011;5906;51.660;6.674;2024-01-15T07:08:11;8.33;;;5.27;;
11699;SDS011;5906;51.660;6.674;2024-01-15T07:10:38;5.33;;;4.83;;
11699;SDS011;5906;51.660;6.674;2024-01-15T07:13:04;6.50;;;5.20;;
11699;SDS011;5906;51.660;6.674;2024-01-15T07:15:34;10.33;;;7.13;;
11699;SDS011;5906;51.660;6.674;2024-01-15T07:18:01;3.90;;;3.60;;
11699;SDS011;5906;51.660;6.674;2024-01-15T07:20:29;4.53;;;4.10;;
11699;SDS011;5906;51.660;6.674;2024-01-15T07:22:58;6.30;;;5.90;;
11699;SDS011;5906;51.660;6.674;2024-01-15T07:25:29;5.33;;;4.90;;
11699;SDS011;5906;51.660;6.674;2024-01-15T07:27:56;13.83;;;5.40;;
11699;SDS011;5906;51.660;6.674;2024-01-15T07:30:23;6.20;;;5.40;;
11699;SDS011;5906;51.660;6.674;2024-01-15T07:32:51;5.43;;;4.90;;
11699;SDS011;5906;51.660;6.674;2024-01-15T07:35:19;5.17;;;4.77;;
11699;SDS011;5906;51.660;6.674;2024-01-15T07:37:46;6.77;;;5.70;;
11699;SDS011;5906;51.660;6.674;2024-01-15T07:40:13;4.87;;;4.50;;
11699;SDS011;5906;51.660;6.674;2024-01-15T07:42:41;5.47;;;4.97;;
11699;SDS011;5906;51.660;6.674;2024-01-15T07:45:13;7.63;;;6.93;;
11699;SDS011;5906;51.660;6.674;2024-01-15T07:47:42;5.67;;;5.10;;
11699;SDS011;5906;51.660;6.674;2024-01-15T07:50:11;6.40;;;5.43;;
11699;SDS011;5906;51.660;6.674;2024-01-15T07:52:44;6.90;;;6.30;;
11699;SDS011;5906;51.660;6.674;2024-01-15T07:55:11;7.23;;;6.27;;
11699;SDS011;5906;51.660;6.674;2024-01-15T07:57:39;7.17;;;6.23;;
11699;SDS011;5906;51.660;6.674;2024-01-15T08:00:06;12.03;;;8.70;;
11699;SDS011;5906;51.660;6.674;2024-01-15T08:02:35;6.87;;;5.97;;
11699;SDS011;5906;51.660;6.674;2024-01-15T08:05:03;7.33;;;6.63;;
11699;SDS011;5906;51.660;6.674;2024-01-15T08:07:30;12.37;;;7.00;;
11699;SDS011;5906;51.660;6.674;2024-01-15T08:09:58;8.37;;;6.60;;
11699;SDS011;5906;51.660;6.674;2024-01-15T08:12:25;6.50;;;5.83;;
11699;SDS011;5906;51.660;6.674;2024-01-15T08:14:51;6.83;;;6.33;;
11699;SDS011;5906;51.660;6.674;2024-01-15T08:17:18;6.47;;;5.90;;
11699;SDS011;5906;51.660;6.674;2024-01-15T08:19:48;6.37;;;5.83;;
11699;SDS011;5906;51.660;6.674;2024-01-15T08:22:15;6.60;;;6.17;;
11699;SDS011;5906;51.660;6.674;2024-01-15T08:24:49;6.60;;;6.10;;
11699;SDS011;5906;51.660;6.674;2024-01-15T08:44:48;4.67;;;4.27;;
11699;SDS011;5906;51.660;6.674;2024-01-15T08:49:10;5.57;;;5.17;;
11699;SDS011;5906;51.660;6.674;2024-01-15T09:26:59;4.97;;;4.57;;
11699;SDS011;5906;51.660;6.674;2024-01-15T09:32:36;5.13;;;4.73;;
11699;SDS011;5906;51.660;6.674;2024-01-15T09:35:04;5.40;;;5.00;;
11699;SDS011;5906;51.660;6.674;2024-01-15T09:37:31;5.80;;;5.40;;
11699;SDS011;5906;51.660;6.674;2024-01-15T09:40:13;6.50;;;6.00;;
11699;SDS011;5906;51.660;6.674;2024-01-15T09:42:43;5.50;;;5.10;;
11699;SDS011;5906;51.660;6.674;2024-01-15T09:45:12;7.47;;;6.83;;
11699;SDS011;5906;51.660;6.674;2024-01-15T09:47:40;7.13;;;5.07;;
11699;SDS011;5906;51.660;6.674;2024-01-15T09:50:11;5.83;;;5.30;;
11699;SDS011;5906;51.660;6.674;2024-01-15T09:52:42;7.20;;;6.60;;
11699;SDS011;5906;51.660;6.674;2024-01-15T09:55:10;6.00;;;5.53;;
11699;SDS011;5906;51.660;6.674;2024-01-15T09:57:38;5.53;;;5.00;;
11699;SDS011;5906;51.660;6.674;2024-01-15T10:00:06;7.50;;;6.90;;
11699;SDS011;5906;51.660;6.674;2024-01-15T10:02:37;6.83;;;6.07;;
11699;SDS011;5906;51.660;6.674;2024-01-15T10:05:04;10.33;;;5.67;;
11699;SDS011;5906;51.660;6.674;2024-01-15T10:07:32;5.80;;;5.20;;
11699;SDS011;5906;51.660;6.674;2024-01-15T10:10:03;7.03;;;6.43;;
11699;SDS011;5906;51.660;6.674;2024-01-15T10:12:32;9.50;;;6.60;;
11699;SDS011;5906;51.660;6.674;2024-01-15T10:15:02;6.10;;;5.50;;
11699;SDS011;5906;51.660;6.674;2024-01-15T10:17:30;8.30;;;7.00;;
11699;SDS011;5906;51.660;6.674;2024-01-15T10:19:59;7.20;;;6.60;;
11699;SDS011;5906;51.660;6.674;2024-01-15T10:22:28;7.90;;;6.93;;
11699;SDS011;5906;51.660;6.674;2024-01-15T10:24:56;6.40;;;5.73;;
11699;SDS011;5906;51.660;6.674;2024-01-15T10:27:24;8.80;;;7.53;;
11699;SDS011;5906;51.660;6.674;2024-01-15T10:29:52;7.07;;;6.47;;
11699;SDS011;5906;51.660;6.674;2024-01-15T10:32:20;10.90;;;6.63;;
11699;SDS011;5906;51.660;6.674;2024-01-15T10:34:51;7.40;;;6.00;;
11699;SDS011;5906;51.660;6.674;2024-01-15T10:37:19;9.30;;;5.77;;
11699;SDS011;5906;51.660;6.674;2024-01-15T10:39:48;9.80;;;5.70;;
11699;SDS011;5906;51.660;6.674;2024-01-15T10:42:16;8.13;;;6.23;;
11699;SDS011;5906;51.660;6.674;2024-01-15T10:44:47;7.37;;;6.07;;
11699;SDS011;5906;51.660;6.674;2024-01-15T10:47:15;6.57;;;6.07;;
11699;SDS011;5906;51.660;6.674;2024-01-15T10:49:43;8.23;;;5.77;;
11699;SDS011;5906;51.660;6.674;2024-01-15T10:52:11;15.93;;;5.30;;
11699;SDS011;5906;51.660;6.674;2024-01-15T10:54:39;9.83;;;5.00;;
11699;SDS011;5906;51.660;6.674;2024-01-15T10:57:09;9.07;;;5.10;;
11699;SDS011;5906;51.660;6.674;2024-01-15T10:59:37;5.03;;;4.63;;
11699;SDS011;5906;51.660;6.674;2024-01-15T11:02:04;5.00;;;4.57;;
11699;SDS011;5906;51.660;6.674;2024-01-15T11:04:32;5.67;;;5.20;;
11699;SDS011;5906;51.660;6.674;2024-01-15T11:07:01;8.40;;;4.60;;
11699;SDS011;5906;51.660;6.674;2024-01-15T11:09:34;4.27;;;3.97;;
11699;SDS011;5906;51.660;6.674;2024-01-15T11:12:07;5.40;;;4.63;;
11699;SDS011;5906;51.660;6.674;2024-01-15T11:14:46;9.07;;;5.50;;
11699;SDS011;5906;51.660;6.674;2024-01-15T11:17:16;5.20;;;4.90;;
11699;SDS011;5906;51.660;6.674;2024-01-15T11:19:44;6.57;;;5.20;;
11699;SDS011;5906;51.660;6.674;2024-01-15T11:24:57;6.57;;;5.87;;
11699;SDS011;5906;51.660;6.674;2024-01-15T11:27:42;10.00;;;6.83;;
11699;SDS011;5906;51.660;6.674;2024-01-15T11:30:14;6.90;;;6.30;;
11699;SDS011;5906;51.660;6.674;2024-01-15T11:32:42;7.93;;;6.27;;
11699;SDS011;5906;51.660;6.674;2024-01-15T11:35:13;10.70;;;8.80;;
11699;SDS011;5906;51.660;6.674;2024-01-15T11:40:22;10.23;;;7.83;;
11699;SDS011;5906;51.660;6.674;2024-01-15T11:42:59;11.20;;;8.60;;
11699;SDS011;5906;51.660;6.674;2024-01-15T11:45:30;8.83;;;7.77;;
11699;SDS011;5906;51.660;6.674;2024-01-15T11:48:13;8.40;;;7.00;;
11699;SDS011;5906;51.660;6.674;2024-01-15T11:50:46;10.23;;;7.37;;
11699;SDS011;5906;51.660;6.674;2024-01-15T11:55:50;6.83;;;6.23;;
11699;SDS011;5906;51.660;6.674;2024-01-15T11:58:18;8.23;;;7.43;;
11699;SDS011;5906;51.660;6.674;2024-01-15T12:00:47;7.70;;;6.27;;
11699;SDS011;5906;51.660;6.674;2024-01-15T12:03:20;8.50;;;7.70;;
11699;SDS011;5906;51.660;6.674;2024-01-15T12:05:48;8.00;;;6.50;;
11699;SDS011;5906;51.660;6.674;2024-01-15T12:08:20;7.20;;;6.00;;
11699;SDS011;5906;51.660;6.674;2024-01-15T12:10:50;13.13;;;6.10;;
11699;SDS011;5906;51.660;6.674;2024-01-15T12:13:18;6.00;;;5.50;;
11699;SDS011;5906;51.660;6.674;2024-01-15T12:15:45;6.20;;;5.60;;
11699;SDS011;5906;51.660;6.674;2024-01-15T12:18:15;10.33;;;6.40;;
11699;SDS011;5906;51.660;6.674;2024-01-15T12:20:44;6.50;;;5.73;;
11699;SDS011;5906;51.660;6.674;2024-01-15T12:23:14;6.40;;;5.80;;
11699;SDS011;5906;51.660;6.674;2024-01-15T12:25:43;5.63;;;5.07;;
11699;SDS011;5906;51.660;6.674;2024-01-15T12:28:11;9.43;;;5.53;;
11699;SDS011;5906;51.660;6.674;2024-01-15T12:30:38;5.60;;;4.83;;
11699;SDS011;5906;51.660;6.674;2024-01-15T12:33:06;4.63;;;4.23;;
11699;SDS011;5906;51.660;6.674;2024-01-15T12:35:35;7.57;;;4.77;;
11699;SDS011;5906;51.660;6.674;2024-01-15T12:38:03;6.43;;;5.37;;
11699;SDS011;5906;51.660;6.674;2024-01-15T12:40:32;5.47;;;5.07;;
11699;SDS011;5906;51.660;6.674;2024-01-15T12:53:46;5.80;;;4.93;;
11699;SDS011;5906;51.660;6.674;2024-01-15T12:56:23;4.40;;;4.07;;
11699;SDS011;5906;51.660;6.674;2024-01-15T12:58:56;4.30;;;3.90;;
11699;SDS011;5906;51.660;6.674;2024-01-15T13:01:24;4.70;;;4.00;;
11699;SDS011;5906;51.660;6.674;2024-01-15T13:03:51;9.50;;;4.57;;
11699;SDS011;5906;51.660;6.674;2024-01-15T13:06:22;6.80;;;4.40;;
11699;SDS011;5906;51.660;6.674;2024-01-15T13:08:55;7.13;;;3.90;;
11699;SDS011;5906;51.660;6.674;2024-01-15T13:11:24;6.20;;;3.83;;
11699;SDS011;5906;51.660;6.674;2024-01-15T13:13:52;8.30;;;4.03;;
11699;SDS011;5906;51.660;6.674;2024-01-15T13:16:19;4.63;;;4.00;;
11699;SDS011;5906;51.660;6.674;2024-01-15T13:18:53;12.90;;;3.67;;
11699;SDS011;5906;51.660;6.674;2024-01-15T13:21:20;3.90;;;3.57;;
11699;SDS011;5906;51.660;6.674;2024-01-15T13:23:47;5.93;;;4.30;;
11699;SDS011;5906;51.660;6.674;2024-01-15T13:26:15;4.97;;;3.47;;
11699;SDS011;5906;51.660;6.674;2024-01-15T13:28:44;5.10;;;4.37;;
11699;SDS011;5906;51.660;6.674;2024-01-15T13:31:11;5.00;;;4.60;;
11699;SDS011;5906;51.660;6.674;2024-01-15T13:33:38;3.90;;;3.60;;
11699;SDS011;5906;51.660;6.674;2024-01-15T13:36:09;4.90;;;4.67;;
11699;SDS011;5906;51.660;6.674;2024-01-15T13:38:37;7.23;;;4.03;;
11699;SDS011;5906;51.660;6.674;2024-01-15T13:41:04;4.47;;;4.17;;
11699;SDS011;5906;51.660;6.674;2024-01-15T13:43:31;7.07;;;3.90;;
11699;SDS011;5906;51.660;6.674;2024-01-15T13:45:59;3.60;;;3.30;;
11699;SDS011;5906;51.660;6.674;2024-01-15T13:48:27;7.83;;;3.90;;
11699;SDS011;5906;51.660;6.674;2024-01-15T13:50:54;3.93;;;3.57;;
11699;SDS011;5906;51.660;6.674;2024-01-15T13:53:21;4.37;;;4.07;;
11699;SDS011;5906;51.660;6.674;2024-01-15T13:55:49;5.03;;;4.63;;
11699;SDS011;5906;51.660;6.674;2024-01-15T13:58:15;3.67;;;3.47;;
11699;SDS011;5906;51.660;6.674;2024-01-15T14:00:44;4.27;;;3.97;;
11699;SDS011;5906;51.660;6.674;2024-01-15T14:03:12;4.73;;;4.33;;
11699;SDS011;5906;51.660;6.674;2024-01-15T14:05:39;4.47;;;4.27;;
11699;SDS011;5906;51.660;6.674;2024-01-15T14:08:07;5.47;;;4.07;;
11699;SDS011;5906;51.660;6.674;2024-01-15T14:10:35;4.67;;;4.37;;
11699;SDS011;5906;51.660;6.674;2024-01-15T14:21:12;7.20;;;4.23;;
11699;SDS011;5906;51.660;6.674;2024-01-15T14:23:39;5.03;;;4.53;;
11699;SDS011;5906;51.660;6.674;2024-01-15T14:26:05;11.27;;;4.87;;
11699;SDS011;5906;51.660;6.674;2024-01-15T14:28:32;5.07;;;4.17;;
11699;SDS011;5906;51.660;6.674;2024-01-15T14:30:59;9.93;;;4.80;;
11699;SDS011;5906;51.660;6.674;2024-01-15T14:33:27;7.80;;;4.80;;
11699;SDS011;5906;51.660;6.674;2024-01-15T14:35:54;9.43;;;4.67;;
11699;SDS011;5906;51.660;6.674;2024-01-15T14:38:21;4.30;;;3.93;;
11699;SDS011;5906;51.660;6.674;2024-01-15T14:40:56;8.17;;;4.57;;
11699;SDS011;5906;51.660;6.674;2024-01-15T14:43:34;6.30;;;4.70;;
11699;SDS011;5906;51.660;6.674;2024-01-15T14:46:50;10.40;;;5.40;;
11699;SDS011;5906;51.660;6.674;2024-01-15T14:54:57;3.37;;;3.20;;
11699;SDS011;5906;51.660;6.674;2024-01-15T14:59:25;5.40;;;3.43;;
11699;SDS011;5906;51.660;6.674;2024-01-15T15:01:55;5.77;;;5.27;;
11699;SDS011;5906;51.660;6.674;2024-01-15T15:04:23;4.93;;;3.57;;
11699;SDS011;5906;51.660;6.674;2024-01-15T15:06:50;5.13;;;3.50;;
11699;SDS011;5906;51.660;6.674;2024-01-15T15:09:17;4.83;;;4.50;;
11699;SDS011;5906;51.660;6.674;2024-01-15T15:11:47;7.60;;;4.50;;
11699;SDS011;5906;51.660;6.674;2024-01-15T15:14:14;5.50;;;4.43;;
11699;SDS011;5906;51.660;6.674;2024-01-15T15:16:41;4.67;;;4.40;;
11699;SDS011;5906;51.660;6.674;2024-01-15T15:19:09;4.63;;;4.10;;
11699;SDS011;5906;51.660;6.674;2024-01-15T15:21:37;4.20;;;3.90;;
11699;SDS011;5906;51.660;6.674;2024-01-15T15:24:07;4.13;;;3.53;;
11699;SDS011;5906;51.660;6.674;2024-01-15T15:27:10;3.37;;;3.13;;
11699;SDS011;5906;51.660;6.674;2024-01-15T15:30:44;7.37;;;4.87;;
11699;SDS011;5906;51.660;6.674;2024-01-15T15:36:46;5.67;;;4.10;;
11699;SDS011;5906;51.660;6.674;2024-01-15T15:39:23;5.23;;;4.57;;
11699;SDS011;5906;51.660;6.674;2024-01-15T15:41:51;5.07;;;4.57;;
11699;SDS011;5906;51.660;6.674;2024-01-15T15:44:18;5.23;;;3.80;;
11699;SDS011;5906;51.660;6.674;2024-01-15T15:46:48;5.30;;;4.90;;
11699;SDS011;5906;51.660;6.674;2024-01-15T15:49:18;4.13;;;3.70;;
11699;SDS011;5906;51.660;6.674;2024-01-15T16:00:03;6.20;;;4.87;;
11699;SDS011;5906;51.660;6.674;2024-01-15T16:02:31;7.93;;;4.40;;
11699;SDS011;5906;51.660;6.674;2024-01-15T16:05:00;7.90;;;4.67;;
11699;SDS011;5906;51.660;6.674;2024-01-15T16:07:31;5.80;;;5.37;;
11699;SDS011;5906;51.660;6.674;2024-01-15T16:09:58;6.13;;;4.00;;
11699;SDS011;5906;51.660;6.674;2024-01-15T16:12:25;4.57;;;4.17;;
11699;SDS011;5906;51.660;6.674;2024-01-15T16:14:52;5.30;;;4.53;;
11699;SDS011;5906;51.660;6.674;2024-01-15T16:17:19;5.23;;;4.63;;
11699;SDS011;5906;51.660;6.674;2024-01-15T16:20:06;6.73;;;5.23;;
11699;SDS011;5906;51.660;6.674;2024-01-15T16:22:53;6.70;;;5.03;;
11699;SDS011;5906;51.660;6.674;2024-01-15T16:25:40;6.37;;;4.73;;
11699;SDS011;5906;51.660;6.674;2024-01-15T16:28:08;9.93;;;6.93;;
11699;SDS011;5906;51.660;6.674;2024-01-15T16:30:36;8.00;;;5.13;;
11699;SDS011;5906;51.660;6.674;2024-01-15T16:33:11;6.13;;;5.60;;
11699;SDS011;5906;51.660;6.674;2024-01-15T16:35:39;5.83;;;4.10;;
11699;SDS011;5906;51.660;6.674;2024-01-15T16:38:06;5.57;;;4.97;;
11699;SDS011;5906;51.660;6.674;2024-01-15T16:40:33;11.00;;;5.47;;
11699;SDS011;5906;51.660;6.674;2024-01-15T16:43:02;8.40;;;5.90;;
11699;SDS011;5906;51.660;6.674;2024-01-15T16:45:29;5.63;;;4.40;;